Time;durP1;ratioP1;P1;durP2;ratioP2;P2;SDS_P1;SDS_P2;PMS_P1;PMS_P2;Temp;Humidity;BMP_temperature;BMP_pressure;BME280_temperature;BME280_humidity;BME280_pressure;Samples;Min_cycle;Max_cycle;Signal;HPM_P1;HPM_P2
2022/04/20 06:02:48;;;;;;;;;15.25;14.50;;;;;18.61;51.02;100828.75;5105629;27;45565;-71
2022/04/20 06:05:13;;;;;;;;;17.50;14.25;;;;;18.78;51.49;100832.66;4997900;27;45553;-69
2022/04/20 06:07:39;;;;;;;;;17.25;17.25;;;;;19.07;50.99;100828.38;5006266;27;45980;-72
2022/04/20 06:10:06;;;;;;;;;21.50;19.00;;;;;19.46;50.11;100830.34;4999185;27;45574;-72
2022/04/20 06:12:32;;;;;;;;;24.50;22.75;;;;;19.88;50.08;100837.31;4998102;28;45579;-72
2022/04/20 06:14:58;;;;;;;;;24.25;24.25;;;;;20.30;49.38;100841.56;4995660;28;45506;-71
2022/04/20 06:17:23;;;;;;;;;28.00;26.00;;;;;20.73;48.18;100838.47;4997619;27;45514;-71
2022/04/20 06:19:48;;;;;;;;;30.25;30.00;;;;;21.14;46.93;100833.63;4999217;27;45457;-71
2022/04/20 06:22:14;;;;;;;;;29.50;28.25;;;;;21.51;45.89;100839.94;4995627;27;46416;-71
2022/04/20 06:24:39;;;;;;;;;31.50;29.25;;;;;21.84;45.92;100834.03;4999761;27;45452;-71
2022/04/20 06:27:05;;;;;;;;;34.00;30.75;;;;;22.15;45.44;100836.31;4998048;28;45450;-70
2022/04/20 06:29:31;;;;;;;;;41.25;35.50;;;;;22.41;44.03;100826.53;5002391;27;45570;-69
2022/04/20 06:31:56;;;;;;;;;36.50;31.00;;;;;22.65;43.62;100828.59;4998384;28;46380;-71
2022/04/20 06:34:21;;;;;;;;;33.75;31.75;;;;;22.85;43.48;100836.47;4995829;27;45480;-71
2022/04/20 06:36:47;;;;;;;;;29.25;28.50;;;;;23.06;43.86;100832.47;4996916;27;45504;-70
2022/04/20 06:39:12;;;;;;;;;26.75;25.25;;;;;23.24;43.33;100835.06;4994435;27;45564;-72
2022/04/20 06:41:37;;;;;;;;;31.25;30.50;;;;;23.45;43.35;100836.53;4979897;27;57396;-71
2022/04/20 06:44:03;;;;;;;;;28.75;27.50;;;;;23.62;42.54;100830.13;4981238;27;46940;-72
2022/04/20 06:46:28;;;;;;;;;29.75;26.75;;;;;23.81;42.43;100834.38;5000213;28;45379;-72
2022/04/20 06:48:54;;;;;;;;;39.25;33.75;;;;;23.96;41.32;100833.72;4998779;27;45523;-69
2022/04/20 06:51:19;;;;;;;;;31.25;30.25;;;;;24.10;41.33;100844.94;4998827;28;46132;-70
2022/04/20 06:59:13;;;;;;;;;29.75;28.00;;;;;24.47;40.84;100840.81;5000141;27;45517;-70
2022/04/20 07:01:38;;;;;;;;;26.00;26.00;;;;;24.58;41.18;100843.16;4998835;28;46134;-70
2022/04/20 07:04:04;;;;;;;;;35.25;31.00;;;;;24.68;40.64;100847.56;4998059;27;45461;-69
2022/04/20 07:06:29;;;;;;;;;30.50;27.50;;;;;24.78;40.37;100847.34;4997724;27;45374;-70
2022/04/20 07:08:54;;;;;;;;;29.25;25.50;;;;;24.86;40.39;100847.34;4990687;27;47809;-71
2022/04/20 07:11:20;;;;;;;;;33.25;27.75;;;;;24.96;40.09;100849.84;4998905;27;45658;-70
2022/04/20 07:13:48;;;;;;;;;27.00;26.00;;;;;25.04;40.22;100840.81;4988557;28;45641;-69
2022/04/20 07:16:14;;;;;;;;;25.75;24.25;;;;;25.11;39.97;100849.97;4988192;28;46237;-68
2022/04/20 07:18:39;;;;;;;;;18.75;18.75;;;;;25.11;40.27;100841.81;4996308;27;45387;-68
2022/04/20 07:21:05;;;;;;;;;23.25;22.25;;;;;25.20;39.94;100850.75;4986814;27;45441;-69
2022/04/20 07:23:30;;;;;;;;;24.25;20.25;;;;;25.23;39.87;100854.00;4987797;28;45568;-68
2022/04/20 07:25:56;;;;;;;;;21.25;21.25;;;;;25.25;39.64;100851.94;4988057;28;45458;-70
2022/04/20 07:28:21;;;;;;;;;26.75;24.00;;;;;25.27;39.50;100849.03;4989740;27;45685;-71
2022/04/20 07:30:47;;;;;;;;;25.50;22.75;;;;;25.30;39.50;100851.38;4988422;27;46023;-71
2022/04/20 07:33:16;;;;;;;;;18.00;18.00;;;;;25.34;39.86;100855.44;4984086;27;45822;-72
2022/04/20 07:35:46;;;;;;;;;21.00;20.00;;;;;25.36;39.63;100850.69;4986291;28;45594;-69
2022/04/20 07:38:12;;;;;;;;;20.25;16.25;;;;;25.41;39.40;100854.75;4985416;27;45639;-70
2022/04/20 07:40:38;;;;;;;;;18.00;17.00;;;;;25.43;39.52;100849.97;4996140;27;46315;-70
2022/04/20 07:43:03;;;;;;;;;25.25;23.25;;;;;25.45;39.51;100856.06;4983212;28;45604;-70
2022/04/20 07:45:29;;;;;;;;;43.75;37.50;;;;;25.40;37.22;100843.03;4984996;28;45682;-70
2022/04/20 07:47:56;;;;;;;;;48.75;39.75;;;;;25.47;36.62;100848.59;4989252;27;45509;-70
2022/04/20 07:50:25;;;;;;;;;43.25;35.00;;;;;25.46;36.75;100855.06;4996605;27;46199;-71
2022/04/20 07:52:53;;;;;;;;;40.75;35.25;;;;;25.43;36.58;100856.25;4983443;28;45642;-71
2022/04/20 07:55:21;;;;;;;;;35.50;31.75;;;;;25.40;36.82;100856.63;4988067;28;45564;-71
2022/04/20 07:57:47;;;;;;;;;37.75;30.75;;;;;25.36;36.81;100856.13;4989681;27;45700;-71
2022/04/20 08:00:15;;;;;;;;;37.25;33.25;;;;;25.35;36.89;100853.59;5000880;27;45547;-71
2022/04/20 08:02:41;;;;;;;;;33.50;30.00;;;;;25.26;37.26;100853.63;4986610;28;46900;-71
2022/04/20 08:05:08;;;;;;;;;32.75;31.00;;;;;25.32;37.05;100867.50;4986962;28;45520;-71
2022/04/20 08:07:34;;;;;;;;;26.75;26.75;;;;;25.27;37.02;100855.31;4989409;27;45498;-71
2022/04/20 08:10:00;;;;;;;;;29.50;28.00;;;;;25.27;36.94;100855.31;4991677;27;47272;-71
2022/04/20 08:12:28;;;;;;;;;29.50;27.00;;;;;25.27;37.20;100857.19;4986256;28;45546;-71
2022/04/20 08:14:54;;;;;;;;;25.00;24.00;;;;;25.26;37.43;100861.78;4988442;28;45434;-70
2022/04/20 08:17:19;;;;;;;;;22.50;22.50;;;;;25.27;37.42;100862.63;4993690;27;45426;-70
2022/04/20 08:19:44;;;;;;;;;18.75;18.00;;;;;25.27;37.72;100866.16;4990634;27;45603;-71
2022/04/20 08:22:10;;;;;;;;;27.25;26.00;;;;;25.26;37.92;100864.50;4989118;28;54583;-70
2022/04/20 08:24:36;;;;;;;;;23.25;22.00;;;;;25.26;37.58;100867.19;4993523;27;45704;-70
2022/04/20 08:27:02;;;;;;;;;23.25;23.25;;;;;25.26;37.46;100871.81;4998243;27;45619;-70
2022/04/20 08:29:27;;;;;;;;;22.25;20.00;;;;;25.23;37.72;100859.44;4982264;27;46411;-69
2022/04/20 08:31:52;;;;;;;;;19.25;17.50;;;;;25.25;37.72;100865.53;4984868;27;47136;-69
2022/04/20 08:34:18;;;;;;;;;25.50;24.00;;;;;25.25;37.64;100872.81;4981268;27;55474;-70
2022/04/20 08:36:43;;;;;;;;;26.75;25.25;;;;;25.24;37.48;100866.53;4978644;27;45556;-70
2022/04/20 08:39:08;;;;;;;;;27.25;24.50;;;;;25.23;37.54;100870.28;4984478;27;45437;-70
2022/04/20 08:41:34;;;;;;;;;23.25;21.75;;;;;25.24;37.38;100876.56;4972722;27;49200;-71
2022/04/20 08:44:02;;;;;;;;;25.50;24.75;;;;;25.24;37.32;100866.53;4980732;27;45832;-71
2022/04/20 08:46:37;;;;;;;;;26.50;24.50;;;;;25.29;37.29;100868.72;4980386;27;45848;-71
2022/04/20 08:49:03;;;;;;;;;26.50;24.50;;;;;25.31;37.32;100866.69;4982018;27;46452;-71
2022/04/20 08:52:37;;;;;;;;;25.25;23.50;;;;;25.33;37.31;100855.63;4981439;27;45547;-71
2022/04/20 08:54:14;;;;;;;;;23.00;22.25;;;;;25.42;36.79;100868.13;4980673;27;45752;-71
2022/04/20 08:59:24;;;;;;;;;22.25;20.50;;;;;25.49;37.04;100855.53;4980358;27;45546;-71
2022/04/20 09:01:50;;;;;;;;;26.25;23.00;;;;;25.53;37.00;100861.44;4978441;27;47371;-72
2022/04/20 09:04:15;;;;;;;;;25.25;21.75;;;;;25.55;36.71;100861.28;4981864;27;45517;-70
2022/04/20 09:06:44;;;;;;;;;26.50;22.75;;;;;25.57;36.87;100859.25;4984681;27;45756;-70
2022/04/20 09:09:10;;;;;;;;;24.25;23.25;;;;;25.59;36.50;100859.94;4981457;27;46505;-71
2022/04/20 09:11:37;;;;;;;;;28.50;23.50;;;;;25.61;36.96;100858.72;4984083;27;45992;-69
2022/04/20 09:14:13;;;;;;;;;24.25;22.75;;;;;25.62;36.87;100860.41;4990579;27;46765;-69
2022/04/20 09:16:38;;;;;;;;;22.25;22.25;;;;;25.60;37.05;100859.75;4985160;27;45741;-70
2022/04/20 09:19:05;;;;;;;;;23.25;21.50;;;;;25.61;36.77;100856.00;4982008;28;45481;-70
2022/04/20 09:21:32;;;;;;;;;19.25;19.25;;;;;25.59;36.47;100855.31;4989793;27;45527;-70
2022/04/20 09:24:07;;;;;;;;;17.50;16.50;;;;;25.60;36.79;100850.75;4983074;28;45718;-70
2022/04/20 09:26:33;;;;;;;;;23.00;19.75;;;;;25.59;36.41;100847.16;4979128;28;45513;-70
2022/04/20 09:29:06;;;;;;;;;22.25;19.50;;;;;25.57;36.70;100846.53;4979699;28;46593;-71
2022/04/20 09:31:49;;;;;;;;;25.25;23.00;;;;;25.58;36.38;100848.19;4996270;27;45502;-70
2022/04/20 09:35:03;;;;;;;;;21.00;18.00;;;;;25.59;36.80;100847.16;4986949;27;45793;-68
2022/04/20 09:37:24;;;;;;;;;21.00;19.75;;;;;25.58;35.95;100847.38;4986394;28;45891;-71
2022/04/20 09:39:53;;;;;;;;;22.25;22.00;;;;;25.57;35.68;100838.38;4989305;27;46846;-70
2022/04/20 09:42:20;;;;;;;;;25.50;22.75;;;;;25.57;35.23;100840.22;4990073;27;45960;-70
2022/04/20 09:44:56;;;;;;;;;27.50;23.25;;;;;25.55;35.01;100839.53;4985037;27;45283;-70
2022/04/20 09:50:11;;;;;;;;;24.00;23.00;;;;;25.53;35.16;100835.13;4986065;27;45844;-72
2022/04/20 09:52:42;;;;;;;;;25.25;22.50;;;;;25.51;35.24;100831.75;4982454;27;45537;-72
2022/04/20 09:55:12;;;;;;;;;24.50;20.00;;;;;25.50;35.09;100823.78;4986137;27;45529;-72
2022/04/20 09:57:37;;;;;;;;;22.75;21.00;;;;;25.47;35.14;100827.69;4985485;28;45811;-72
2022/04/20 10:00:12;;;;;;;;;20.50;20.25;;;;;25.41;34.66;100814.00;4986865;27;45816;-71
2022/04/20 10:02:43;;;;;;;;;18.50;18.50;;;;;25.42;35.08;100819.22;4991211;27;45449;-72
2022/04/20 10:05:08;;;;;;;;;24.25;24.00;;;;;25.44;34.82;100824.50;4986617;27;45661;-72
2022/04/20 10:07:34;;;;;;;;;27.25;24.00;;;;;25.43;34.75;100809.22;4988256;27;45475;-72
2022/04/20 10:10:00;;;;;;;;;23.00;22.75;;;;;25.39;35.03;100809.56;4987163;28;45794;-72
2022/04/20 10:12:30;;;;;;;;;29.00;24.00;;;;;25.40;34.62;100818.56;4996931;27;45450;-71
2022/04/20 10:17:46;;;;;;;;;24.25;24.00;;;;;25.40;34.43;100815.84;4989228;27;45558;-72
2022/04/20 10:20:12;;;;;;;;;22.00;20.75;;;;;25.38;34.32;100813.31;4984931;27;46568;-71
2022/04/20 10:22:39;;;;;;;;;21.00;20.75;;;;;25.37;34.35;100800.75;4998429;27;45568;-71
2022/04/20 10:25:06;;;;;;;;;20.75;20.50;;;;;25.38;34.25;100809.78;4988971;27;45540;-71
2022/04/20 10:27:47;;;;;;;;;18.25;18.25;;;;;25.37;33.98;100806.19;4988055;27;45797;-71
2022/04/20 10:30:20;;;;;;;;;16.75;16.00;;;;;25.37;33.92;100798.03;4987471;27;45758;-71
2022/04/20 10:33:05;;;;;;;;;19.25;19.25;;;;;25.35;34.17;100793.81;4981506;28;49971;-71
2022/04/20 10:35:32;;;;;;;;;18.50;18.50;;;;;25.38;34.07;100788.88;4985006;27;45554;-71
2022/04/20 10:38:07;;;;;;;;;19.33;18.33;;;;;25.34;34.18;100786.69;4961630;28;45542;-71
2022/04/20 10:40:33;;;;;;;;;19.00;19.00;;;;;25.38;34.23;100794.28;4959042;27;46638;-71
2022/04/20 10:43:21;;;;;;;;;15.00;15.00;;;;;25.38;33.65;100782.59;4957306;27;46974;-71
2022/04/20 10:46:05;;;;;;;;;17.33;17.00;;;;;25.37;33.53;100786.31;4957320;27;46497;-71
2022/04/20 10:48:49;;;;;;;;;18.67;17.67;;;;;25.37;34.12;100778.16;4957025;28;47501;-72
2022/04/20 10:51:17;;;;;;;;;16.67;15.00;;;;;25.37;33.59;100775.44;4958709;27;46114;-72
2022/04/20 10:53:50;;;;;;;;;15.67;13.00;;;;;25.36;33.08;100771.91;4961558;27;47403;-72
2022/04/20 10:56:17;;;;;;;;;13.00;12.67;;;;;25.37;33.30;100773.59;4961182;27;46095;-72
2022/04/20 10:59:06;;;;;;;;;13.33;12.67;;;;;25.39;33.10;100774.25;4962892;28;45617;-72
2022/04/20 11:01:31;;;;;;;;;15.33;12.67;;;;;25.42;33.24;100770.31;4962613;27;45529;-72
2022/04/20 11:04:07;;;;;;;;;13.00;11.33;;;;;25.44;33.46;100770.16;4960578;27;47199;-72
2022/04/20 11:07:12;;;;;;;;;12.00;12.00;;;;;25.45;33.18;100772.69;4959070;28;47677;-72
2022/04/20 11:09:44;;;;;;;;;14.00;14.00;;;;;25.45;33.06;100769.97;4960564;27;47000;-72
2022/04/20 11:21:06;;;;;;;;;14.00;12.67;;;;;25.50;33.21;100756.69;4958979;27;45691;-72
2022/04/20 11:23:55;;;;;;;;;8.67;8.67;;;;;25.52;33.41;100757.38;4961429;27;45882;-72
2022/04/20 11:26:28;;;;;;;;;10.67;9.33;;;;;25.52;33.38;100753.78;4962510;27;47231;-72
2022/04/20 11:29:00;;;;;;;;;8.00;8.00;;;;;25.52;33.48;100751.06;4964893;27;47402;-72
2022/04/20 11:31:26;;;;;;;;;11.33;9.33;;;;;25.52;33.83;100757.38;4959987;27;46979;-72
2022/04/20 11:33:53;;;;;;;;;10.00;9.00;;;;;25.54;33.30;100738.13;4958315;27;47301;-71
2022/04/20 11:36:19;;;;;;;;;9.00;9.00;;;;;25.55;33.58;100750.75;4962311;27;45578;-72
2022/04/20 11:38:47;;;;;;;;;12.33;11.00;;;;;25.54;33.20;100743.56;4956585;27;45572;-72
2022/04/20 11:41:13;;;;;;;;;11.00;10.67;;;;;25.55;32.98;100748.03;4960304;27;46143;-72
2022/04/20 11:43:40;;;;;;;;;10.00;10.00;;;;;25.55;33.19;100737.16;4957789;27;46639;-72
2022/04/20 11:46:07;;;;;;;;;13.00;12.00;;;;;25.56;33.40;100744.28;4959638;27;46575;-72
2022/04/20 11:48:35;;;;;;;;;12.67;9.00;;;;;25.56;33.38;100741.56;4998214;27;46576;-72
2022/04/20 11:51:02;;;;;;;;;10.33;8.67;;;;;25.58;33.05;100744.94;4994818;27;45704;-72
2022/04/20 11:53:38;;;;;;;;;9.33;9.33;;;;;25.58;33.24;100736.78;4995354;27;46681;-72
2022/04/20 11:56:05;;;;;;;;;13.00;13.00;;;;;25.60;32.85;100732.03;4996542;27;45962;-73
2022/04/20 11:58:31;;;;;;;;;11.67;10.00;;;;;25.60;33.04;100733.88;4987069;27;45543;-72
2022/04/20 12:01:08;;;;;;;;;10.33;10.00;;;;;25.62;32.75;100729.09;4980390;27;45923;-72
2022/04/20 12:03:41;;;;;;;;;12.00;10.00;;;;;25.63;32.73;100733.53;4978413;27;45945;-72
2022/04/20 12:06:08;;;;;;;;;10.33;9.00;;;;;25.64;32.62;100733.34;4980268;27;45546;-72
2022/04/20 12:08:40;;;;;;;;;9.67;9.67;;;;;25.64;32.69;100730.63;4988284;27;45842;-73
2022/04/20 12:11:10;;;;;;;;;9.00;9.00;;;;;25.65;32.42;100718.72;4979547;27;45531;-73
2022/04/20 12:13:42;;;;;;;;;12.33;10.33;;;;;25.67;32.76;100732.16;4980812;27;45538;-72
2022/04/20 12:16:08;;;;;;;;;10.00;10.00;;;;;25.69;32.12;100731.94;4993594;27;45532;-74
2022/04/20 12:18:36;;;;;;;;;11.67;9.33;;;;;25.70;31.77;100725.50;4982084;27;46151;-72
2022/04/20 12:21:05;;;;;;;;;10.00;9.00;;;;;25.70;32.23;100729.03;4989003;27;45762;-72
2022/04/20 12:23:33;;;;;;;;;13.00;11.00;;;;;25.72;32.25;100723.41;4982737;27;45645;-74
2022/04/20 12:26:01;;;;;;;;;11.67;9.00;;;;;25.74;32.59;100729.50;4984098;27;45486;-73
2022/04/20 12:28:35;;;;;;;;;8.50;8.00;;;;;25.77;32.32;100716.41;4980466;27;46368;-75
2022/04/20 12:31:02;;;;;;;;;7.67;7.67;;;;;25.83;32.68;100725.69;4987118;27;45899;-74
2022/04/20 12:33:30;;;;;;;;;10.00;9.00;;;;;25.75;33.18;100699.44;4981058;27;45770;-74
2022/04/20 12:36:05;;;;;;;;;11.33;8.33;;;;;25.83;33.01;100700.38;4989993;27;45985;-74
2022/04/20 12:38:44;;;;;;;;;9.33;8.00;;;;;25.89;33.00;100695.06;4992731;27;45524;-74
2022/04/20 12:41:45;;;;;;;;;9.00;9.00;;;;;26.09;33.13;100713.53;4981935;27;45450;-73
2022/04/20 12:44:35;;;;;;;;;7.67;6.67;;;;;26.18;33.16;100717.00;4980892;27;45646;-74
2022/04/20 12:47:21;;;;;;;;;6.67;6.67;;;;;26.23;33.32;100720.00;4979616;27;45600;-73
2022/04/20 12:49:48;;;;;;;;;10.00;7.67;;;;;26.30;33.03;100706.53;4986794;27;45396;-72
2022/04/20 12:52:25;;;;;;;;;5.00;5.00;;;;;26.35;33.27;100716.88;4980834;27;46530;-71
2022/04/20 12:54:54;;;;;;;;;8.00;7.33;;;;;26.38;33.75;100703.72;4992571;27;45629;-71
2022/04/20 13:03:04;;;;;;;;;8.00;6.00;;;;;26.39;33.95;100671.91;4976272;27;45557;-74
2022/04/20 13:05:37;;;;;;;;;10.00;7.67;;;;;26.53;33.78;100700.97;4989668;27;49677;-74
2022/04/20 13:08:05;;;;;;;;;9.33;7.67;;;;;26.44;33.65;100681.19;4974738;27;46809;-72
2022/04/20 13:10:30;;;;;;;;;7.00;7.00;;;;;26.43;33.99;100671.34;4977093;28;45813;-74
2022/04/20 13:12:57;;;;;;;;;7.00;7.00;;;;;26.43;33.85;100662.31;4981261;27;45508;-74
2022/04/20 13:15:24;;;;;;;;;6.33;4.67;;;;;26.46;34.06;100664.69;4979536;27;46104;-74
2022/04/20 13:17:51;;;;;;;;;8.00;8.00;;;;;26.53;33.74;100678.38;4992111;27;45513;-72
2022/04/20 13:20:17;;;;;;;;;8.67;8.67;;;;;26.59;32.87;100685.75;4997861;27;45547;-72
2022/04/20 13:22:43;;;;;;;;;6.67;6.67;;;;;26.56;32.98;100676.09;4990456;27;46249;-72
2022/04/20 13:27:55;;;;;;;;;11.67;8.67;;;;;26.51;32.85;100673.13;4980516;27;45820;-72
2022/04/20 13:30:22;;;;;;;;;8.67;7.67;;;;;26.65;33.25;100695.06;4986469;27;46060;-74
2022/04/20 13:32:51;;;;;;;;;10.00;8.67;;;;;26.60;33.21;100695.59;4979510;27;45495;-73
2022/04/20 13:35:17;;;;;;;;;9.33;6.00;;;;;26.58;33.63;100701.25;4992256;27;45763;-73
2022/04/20 13:37:42;;;;;;;;;8.33;8.33;;;;;26.59;33.53;100691.22;4982818;27;45756;-73
2022/04/20 13:40:09;;;;;;;;;10.33;8.33;;;;;26.60;33.78;100697.50;4982595;27;54546;-73
2022/04/20 13:42:35;;;;;;;;;7.67;6.33;;;;;26.62;33.77;100700.88;4979054;27;45482;-73
2022/04/20 13:45:01;;;;;;;;;11.33;10.00;;;;;26.63;33.83;100700.69;4983743;27;45615;-74
2022/04/20 13:47:26;;;;;;;;;7.67;5.67;;;;;26.65;33.84;100697.78;4994611;27;45543;-73
2022/04/20 13:49:51;;;;;;;;;6.00;6.00;;;;;26.61;34.11;100689.16;4989443;27;45856;-74
2022/04/20 13:52:17;;;;;;;;;7.67;6.67;;;;;26.68;34.17;100703.69;4974682;27;45593;-72
2022/04/20 13:54:42;;;;;;;;;7.67;6.00;;;;;26.68;33.87;100703.69;4963664;27;48491;-73
2022/04/20 13:57:07;;;;;;;;;6.00;6.00;;;;;26.66;34.06;100694.00;4961064;27;52527;-73
2022/04/20 13:59:32;;;;;;;;;8.00;5.00;;;;;26.62;34.06;100685.41;4965695;27;47543;-74
2022/04/20 14:01:58;;;;;;;;;6.33;6.33;;;;;26.72;34.42;100690.53;4964944;27;46364;-71
2022/04/20 14:04:24;;;;;;;;;7.67;7.67;;;;;26.74;34.70;100688.47;4961183;27;47484;-70
2022/04/20 14:06:50;;;;;;;;;10.33;6.00;;;;;26.79;34.67;100688.72;4965995;27;46092;-71
2022/04/20 14:09:16;;;;;;;;;8.00;8.00;;;;;26.82;34.45;100685.59;4958687;27;46135;-72
2022/04/20 14:11:42;;;;;;;;;9.00;7.67;;;;;26.84;34.87;100689.00;4966073;27;45564;-71
2022/04/20 14:14:07;;;;;;;;;8.67;8.00;;;;;26.87;34.85;100693.22;4958253;27;45720;-71
2022/04/20 14:16:33;;;;;;;;;8.67;5.67;;;;;26.89;33.72;100693.84;4957823;27;47033;-70
2022/04/20 14:18:58;;;;;;;;;6.33;6.33;;;;;26.91;33.68;100689.06;4959939;27;45514;-69
2022/04/20 14:21:24;;;;;;;;;8.33;6.00;;;;;26.92;33.33;100692.63;4958794;27;45872;-73
2022/04/20 14:23:49;;;;;;;;;6.33;5.67;;;;;26.91;33.38;100696.38;4961247;27;47339;-72
2022/04/20 14:34:27;;;;;;;;;6.67;6.00;;;;;26.90;33.78;100687.38;4998434;27;46198;-70
2022/04/20 14:36:52;;;;;;;;;4.67;4.67;;;;;26.95;34.00;100689.56;4995703;27;46595;-72
2022/04/20 14:39:17;;;;;;;;;4.67;4.00;;;;;26.95;33.96;100687.69;4983964;27;45389;-71
2022/04/20 14:41:43;;;;;;;;;6.00;6.00;;;;;26.96;34.51;100699.41;4986797;27;45680;-74
2022/04/20 14:44:09;;;;;;;;;6.00;6.00;;;;;26.98;34.30;100685.59;4980611;27;45514;-73
2022/04/20 14:46:35;;;;;;;;;11.67;7.33;;;;;26.95;34.38;100676.78;4995049;27;45452;-74
2022/04/20 14:49:00;;;;;;;;;8.00;6.00;;;;;26.98;34.47;100681.00;4988686;27;46958;-71
2022/04/20 14:51:26;;;;;;;;;4.00;4.00;;;;;26.93;34.92;100670.69;4985842;27;45595;-75
2022/04/20 14:53:51;;;;;;;;;6.00;6.00;;;;;27.01;34.88;100687.94;4981747;27;48323;-77
2022/04/20 14:56:16;;;;;;;;;5.33;4.00;;;;;27.05;34.37;100689.25;5005057;27;47327;-75
2022/04/20 14:58:43;;;;;;;;;6.00;6.00;;;;;27.07;34.86;100687.16;4985434;27;45973;-73
2022/04/20 15:01:08;;;;;;;;;6.67;4.00;;;;;27.08;34.52;100681.53;4994170;27;45419;-74
2022/04/20 15:03:34;;;;;;;;;9.00;8.00;;;;;27.08;35.07;100678.81;4990568;27;47186;-76
2022/04/20 15:05:59;;;;;;;;;6.33;6.33;;;;;27.12;35.17;100686.56;4988794;27;45568;-73
2022/04/20 15:08:25;;;;;;;;;5.67;5.67;;;;;27.12;34.54;100681.97;5011036;27;45410;-73
2022/04/20 15:10:50;;;;;;;;;4.33;4.33;;;;;27.12;35.10;100678.41;4997021;27;45489;-75
2022/04/20 15:13:16;;;;;;;;;5.00;4.67;;;;;27.15;35.35;100672.56;4984604;27;45622;-75
2022/04/20 15:15:42;;;;;;;;;7.00;4.67;;;;;27.17;35.23;100678.66;4995999;27;45523;-76
2022/04/20 15:18:08;;;;;;;;;4.00;4.00;;;;;27.15;35.04;100662.53;4998974;27;45852;-74
2022/04/20 15:20:34;;;;;;;;;5.00;5.00;;;;;27.15;34.92;100662.53;5021939;27;45466;-72
2022/04/20 15:23:00;;;;;;;;;4.00;4.00;;;;;27.19;35.16;100669.28;4975198;27;46490;-71
2022/04/20 15:25:26;;;;;;;;;7.33;7.33;;;;;27.20;34.35;100661.94;4970226;27;45521;-70
2022/04/20 15:27:52;;;;;;;;;9.00;7.00;;;;;27.17;33.39;100665.88;4968601;27;46924;-71
2022/04/20 15:30:18;;;;;;;;;7.33;7.33;;;;;27.17;33.20;100662.31;4962879;27;46250;-72
2022/04/20 15:32:44;;;;;;;;;8.67;8.00;;;;;27.14;33.37;100660.00;4959704;27;46037;-71
2022/04/20 15:35:10;;;;;;;;;10.33;8.00;;;;;27.10;33.76;100654.91;4958614;27;47153;-71
2022/04/20 15:37:37;;;;;;;;;5.33;5.00;;;;;27.09;34.31;100649.66;4961339;27;45795;-71
2022/04/20 15:40:03;;;;;;;;;10.00;6.33;;;;;27.10;33.69;100660.38;4963314;27;45578;-71
2022/04/20 15:42:31;;;;;;;;;8.00;5.33;;;;;27.10;33.92;100654.91;4965151;27;46589;-71
2022/04/20 15:44:57;;;;;;;;;9.00;7.00;;;;;27.14;34.18;100652.63;4960660;27;45942;-71
2022/04/20 15:47:23;;;;;;;;;5.00;5.00;;;;;27.16;33.85;100660.63;4964162;27;46620;-71
2022/04/20 15:49:48;;;;;;;;;9.33;8.00;;;;;27.18;34.18;100653.13;4961246;27;46287;-70
2022/04/20 15:52:13;;;;;;;;;6.33;5.67;;;;;27.17;34.07;100646.81;4963936;27;46354;-70
2022/04/20 15:54:39;;;;;;;;;9.00;7.00;;;;;27.20;34.43;100648.31;4960701;27;46752;-70
2022/04/20 16:02:33;;;;;;;;;8.00;5.67;;;;;27.22;34.76;100654.41;4964072;27;45616;-70
2022/04/20 16:04:58;;;;;;;;;14.33;10.67;;;;;27.22;34.14;100655.25;4962072;27;47758;-71
2022/04/20 16:07:23;;;;;;;;;8.67;7.67;;;;;27.21;33.79;100642.66;4963615;27;45636;-71
2022/04/20 16:09:49;;;;;;;;;12.00;9.00;;;;;27.22;33.37;100647.06;4966286;27;46175;-70
2022/04/20 16:12:14;;;;;;;;;18.33;13.33;;;;;27.21;33.83;100652.72;4962455;27;47022;-70
2022/04/20 16:14:40;;;;;;;;;12.33;10.00;;;;;27.18;33.76;100647.66;4960514;27;47613;-71
2022/04/20 16:17:06;;;;;;;;;13.00;8.33;;;;;27.15;34.11;100645.31;4963180;27;46724;-71
2022/04/20 16:19:32;;;;;;;;;16.33;9.33;;;;;27.12;34.07;100648.44;4973111;27;45689;-70
2022/04/20 16:21:58;;;;;;;;;7.33;7.33;;;;;27.09;33.41;100652.38;4962674;27;46943;-70
2022/04/20 16:24:23;;;;;;;;;7.67;7.67;;;;;27.05;33.37;100638.31;4962013;27;45957;-70
2022/04/20 16:26:50;;;;;;;;;11.00;11.00;;;;;27.04;34.17;100643.97;4967543;27;45614;-70
2022/04/20 16:29:15;;;;;;;;;9.67;7.00;;;;;26.99;33.84;100636.38;4961661;27;47285;-70
2022/04/20 16:31:41;;;;;;;;;10.33;9.33;;;;;26.95;33.79;100635.09;4961062;27;45475;-70
2022/04/20 16:34:06;;;;;;;;;9.33;8.33;;;;;26.92;33.54;100636.28;4963345;27;45521;-70
2022/04/20 16:36:31;;;;;;;;;13.67;9.33;;;;;26.90;33.64;100645.69;4962233;27;45980;-70
2022/04/20 16:38:57;;;;;;;;;12.33;12.33;;;;;26.87;34.02;100640.63;4968629;27;45644;-70
2022/04/20 16:41:22;;;;;;;;;8.33;8.33;;;;;26.87;33.58;100640.63;4961504;27;45758;-70
2022/04/20 16:43:48;;;;;;;;;9.33;7.67;;;;;26.83;33.89;100640.16;4960262;27;45593;-71
2022/04/20 16:46:13;;;;;;;;;9.67;9.33;;;;;26.80;33.95;100633.22;4996660;27;45535;-69
2022/04/20 16:48:38;;;;;;;;;9.33;7.33;;;;;26.79;33.96;100637.00;4995788;27;45426;-71
2022/04/20 16:51:04;;;;;;;;;11.67;9.00;;;;;26.78;33.83;100638.03;5021410;27;47406;-70
2022/04/20 16:53:30;;;;;;;;;8.00;6.67;;;;;26.77;33.60;100632.78;4994165;27;45500;-72
2022/04/20 16:55:56;;;;;;;;;9.00;7.33;;;;;26.79;33.86;100636.16;4967806;27;45591;-71
2022/04/20 16:58:22;;;;;;;;;8.67;6.00;;;;;26.80;33.40;100637.81;4960347;27;45881;-71
2022/04/20 17:00:48;;;;;;;;;7.33;6.00;;;;;26.81;34.06;100639.53;4960920;27;46952;-72
2022/04/20 17:03:14;;;;;;;;;7.00;7.00;;;;;26.79;33.80;100645.16;4975419;27;46263;-71
2022/04/20 17:05:39;;;;;;;;;6.00;5.33;;;;;26.79;33.58;100638.88;4961908;27;46306;-70
2022/04/20 17:08:05;;;;;;;;;6.00;6.00;;;;;26.80;33.90;100637.81;4960796;27;46216;-70
2022/04/20 17:10:31;;;;;;;;;7.00;7.00;;;;;26.79;33.83;100637.00;4993504;27;45762;-70
2022/04/20 17:12:57;;;;;;;;;8.67;7.00;;;;;26.81;33.58;100639.53;4984833;28;45689;-71
2022/04/20 17:15:22;;;;;;;;;9.33;7.67;;;;;26.81;33.47;100632.19;4984922;28;45529;-71
2022/04/20 17:17:47;;;;;;;;;10.00;8.00;;;;;26.79;33.58;100631.56;4980642;28;45823;-71
2022/04/20 17:28:24;;;;;;;;;10.33;7.00;;;;;26.82;33.30;100647.47;4964757;27;47239;-71
2022/04/20 17:30:50;;;;;;;;;9.67;7.67;;;;;26.81;33.68;100645.81;4960407;27;47234;-71
2022/04/20 17:33:15;;;;;;;;;8.00;5.33;;;;;26.79;33.62;100650.63;4982439;27;45705;-71
2022/04/20 17:38:24;;;;;;;;;8.00;6.67;;;;;26.73;33.48;100645.91;4986047;28;56293;-70
2022/04/20 17:40:50;;;;;;;;;9.33;8.00;;;;;26.69;33.31;100645.47;4985668;28;45398;-71
2022/04/20 17:43:16;;;;;;;;;9.00;7.00;;;;;26.68;33.60;100654.69;4977955;27;47012;-71
2022/04/20 17:45:42;;;;;;;;;7.67;6.00;;;;;26.66;33.54;100658.63;4964931;27;47175;-72
2022/04/20 17:48:08;;;;;;;;;10.00;8.67;;;;;26.64;33.80;100649.81;4965121;27;45603;-74
2022/04/20 17:50:35;;;;;;;;;7.00;7.00;;;;;26.60;34.27;100649.34;4961234;27;45651;-73
2022/04/20 17:53:01;;;;;;;;;9.00;6.00;;;;;26.60;33.40;100645.78;4974381;27;45487;-73
2022/04/20 17:55:30;;;;;;;;;9.33;7.00;;;;;26.61;33.62;100648.31;5038443;27;45530;-73
2022/04/20 17:57:56;;;;;;;;;9.67;8.67;;;;;26.60;33.40;100648.50;4989894;27;45349;-73
2022/04/20 18:00:21;;;;;;;;;10.33;6.00;;;;;26.62;33.49;100658.16;4996273;27;45489;-73
2022/04/20 18:02:47;;;;;;;;;8.00;5.67;;;;;26.57;33.16;100645.13;4981731;28;45537;-74
2022/04/20 18:05:12;;;;;;;;;7.67;7.33;;;;;26.60;33.42;100653.97;4987002;28;45438;-73
2022/04/20 18:07:38;;;;;;;;;10.67;8.33;;;;;26.60;33.67;100656.69;4988219;28;45770;-74
2022/04/20 18:10:04;;;;;;;;;7.00;6.67;;;;;26.58;33.57;100654.97;4990766;27;46081;-74
2022/04/20 18:12:29;;;;;;;;;5.33;4.67;;;;;26.59;33.34;100661.28;4992921;28;45695;-73
2022/04/20 18:14:54;;;;;;;;;7.00;5.00;;;;;26.58;33.10;100663.13;4983978;28;45418;-74
2022/04/20 18:17:20;;;;;;;;;6.67;6.67;;;;;26.52;33.35;100658.47;4986922;28;45470;-73